Time;durP1;ratioP1;P1;durP2;ratioP2;P2;SDS_P1;SDS_P2;PMS_P1;PMS_P2;Temp;Humidity;BMP_temperature;BMP_pressure;BME280_temperature;BME280_humidity;BME280_pressure;Samples;Min_cycle;Max_cycle;Signal;HPM_P1;HPM_P2
2021/07/03 00:00:57;;;;;;;20.20;13.98;;;16.70;91.30;;;;;;5074207;28;20029;-74
2021/07/03 00:03:23;;;;;;;21.88;14.23;;;16.60;91.40;;;;;;5057002;28;20491;-78
2021/07/03 00:05:49;;;;;;;19.00;13.27;;;16.60;91.50;;;;;;5057006;28;20024;-78
2021/07/03 00:08:14;;;;;;;22.70;13.80;;;16.60;91.60;;;;;;5074837;28;20110;-78
2021/07/03 00:10:40;;;;;;;21.65;14.23;;;16.50;91.60;;;;;;5073462;28;20547;-78
2021/07/03 00:13:06;;;;;;;20.17;14.00;;;16.50;91.60;;;;;;5073360;28;20075;-78
2021/07/03 00:15:32;;;;;;;20.75;14.48;;;16.50;91.70;;;;;;5074585;28;20094;-78
2021/07/03 00:17:58;;;;;;;23.23;14.93;;;16.50;91.80;;;;;;5074710;28;20032;-78
2021/07/03 00:20:25;;;;;;;20.38;14.45;;;16.50;91.80;;;;;;5074910;28;20032;-78
2021/07/03 00:22:52;;;;;;;23.05;15.13;;;16.40;91.90;;;;;;5074700;28;20090;-78
2021/07/03 00:25:17;;;;;;;22.05;14.27;;;16.40;92.00;;;;;;5056922;28;20484;-75
2021/07/03 00:27:43;;;;;;;22.40;13.55;;;16.40;92.00;;;;;;5074428;28;20202;-75
2021/07/03 00:30:10;;;;;;;22.85;13.40;;;16.40;92.10;;;;;;5073470;28;20035;-75
2021/07/03 00:32:36;;;;;;;24.13;13.15;;;16.40;92.10;;;;;;5073281;28;20025;-75
2021/07/03 00:35:02;;;;;;;19.20;11.80;;;16.30;92.20;;;;;;5074334;28;20035;-75
2021/07/03 00:37:28;;;;;;;21.20;12.50;;;16.30;92.20;;;;;;5074250;28;20028;-75
2021/07/03 00:39:55;;;;;;;16.95;11.05;;;16.20;92.30;;;;;;5073433;28;20490;-75
2021/07/03 00:42:21;;;;;;;19.50;12.88;;;16.20;92.30;;;;;;5056486;28;20078;-75
2021/07/03 00:44:47;;;;;;;19.13;12.18;;;16.10;92.40;;;;;;5072951;28;20411;-75
2021/07/03 00:47:12;;;;;;;17.52;11.10;;;16.10;92.40;;;;;;5072910;28;20032;-75
2021/07/03 00:49:38;;;;;;;17.20;11.30;;;16.10;92.40;;;;;;5056479;28;20413;-75
2021/07/03 00:52:06;;;;;;;17.48;11.35;;;16.00;92.40;;;;;;5073159;28;20036;-75
2021/07/03 00:54:36;;;;;;;19.33;12.15;;;16.00;92.50;;;;;;5074109;28;20032;-75
2021/07/03 00:57:04;;;;;;;20.63;10.98;;;16.00;92.50;;;;;;5074040;28;20055;-75
2021/07/03 00:59:48;;;;;;;16.38;10.77;;;16.00;92.60;;;;;;5074011;28;20556;-75
2021/07/03 01:02:17;;;;;;;21.90;11.00;;;16.00;92.70;;;;;;5073934;28;20056;-75
2021/07/03 01:04:44;;;;;;;17.52;10.98;;;15.90;92.70;;;;;;5072704;28;20043;-75
2021/07/03 01:07:10;;;;;;;17.33;10.07;;;15.90;92.70;;;;;;5072598;28;20044;-75
2021/07/03 01:09:36;;;;;;;17.20;9.93;;;15.90;92.70;;;;;;5072294;28;20036;-75
2021/07/03 01:12:04;;;;;;;16.08;10.27;;;15.90;92.80;;;;;;5055651;28;20060;-75
2021/07/03 01:14:30;;;;;;;20.05;11.40;;;15.80;92.80;;;;;;5072330;28;20417;-75
2021/07/03 01:16:56;;;;;;;17.67;11.40;;;15.80;92.80;;;;;;5073767;28;20095;-75
2021/07/03 01:19:22;;;;;;;17.90;11.40;;;15.80;92.80;;;;;;5073459;28;20102;-75
2021/07/03 01:21:53;;;;;;;20.52;12.30;;;15.80;92.90;;;;;;5072474;28;20428;-75
2021/07/03 01:24:21;;;;;;;19.33;11.85;;;15.80;92.90;;;;;;5072328;28;20107;-75
2021/07/03 01:26:49;;;;;;;23.85;12.93;;;15.80;92.90;;;;;;5072088;28;20395;-75
2021/07/03 01:29:16;;;;;;;20.88;12.00;;;15.80;92.90;;;;;;5055467;28;20530;-75
2021/07/03 01:31:43;;;;;;;23.05;12.07;;;15.80;92.90;;;;;;5072560;28;20032;-75
2021/07/03 01:34:09;;;;;;;20.23;11.60;;;15.70;93.00;;;;;;5072158;28;20029;-75
2021/07/03 01:36:36;;;;;;;19.25;11.93;;;15.70;93.00;;;;;;5073748;28;20067;-75
2021/07/03 01:39:05;;;;;;;20.27;11.50;;;15.70;93.00;;;;;;5072068;28;20017;-76
2021/07/03 01:41:30;;;;;;;17.05;10.70;;;15.70;93.00;;;;;;5073604;28;20537;-76
2021/07/03 01:43:56;;;;;;;17.67;11.23;;;15.60;93.00;;;;;;5072317;28;20025;-76
2021/07/03 01:46:22;;;;;;;19.30;10.98;;;15.60;93.30;;;;;;5055242;28;20029;-75
2021/07/03 01:48:47;;;;;;;20.17;11.93;;;15.60;93.10;;;;;;5073023;28;20129;-75
2021/07/03 01:51:13;;;;;;;19.13;11.07;;;15.60;93.20;;;;;;5072164;28;20086;-76
2021/07/03 01:53:39;;;;;;;16.73;10.90;;;15.60;93.20;;;;;;5072036;28;20380;-75
2021/07/03 01:56:08;;;;;;;18.55;11.35;;;15.50;93.20;;;;;;5073070;28;20032;-76
2021/07/03 01:58:35;;;;;;;20.70;11.95;;;15.60;93.30;;;;;;5073104;28;20021;-76
2021/07/03 02:01:02;;;;;;;19.83;12.55;;;15.50;93.30;;;;;;5071939;28;20105;-75
2021/07/03 02:03:28;;;;;;;21.33;12.32;;;15.50;93.40;;;;;;5072023;28;20025;-75
2021/07/03 02:05:53;;;;;;;19.63;12.95;;;15.50;93.40;;;;;;5071727;28;20031;-75
2021/07/03 02:08:20;;;;;;;22.92;12.05;;;15.50;93.40;;;;;;5071727;28;20032;-76
2021/07/03 02:10:46;;;;;;;20.90;12.63;;;15.50;93.40;;;;;;5072948;28;20032;-76
2021/07/03 02:13:12;;;;;;;19.52;12.90;;;15.40;93.40;;;;;;5072795;28;20376;-76
2021/07/03 02:15:37;;;;;;;23.70;12.57;;;15.40;93.40;;;;;;5071628;28;20032;-76
2021/07/03 02:18:04;;;;;;;22.45;13.45;;;15.40;93.50;;;;;;5073321;28;20476;-76
2021/07/03 02:20:31;;;;;;;20.63;12.15;;;15.40;93.50;;;;;;5072982;28;20051;-76
2021/07/03 02:22:58;;;;;;;20.48;11.88;;;15.40;93.50;;;;;;5073275;28;20396;-76
2021/07/03 02:25:24;;;;;;;21.05;13.40;;;15.30;93.50;;;;;;5076595;28;20055;-76
2021/07/03 02:27:50;;;;;;;18.88;11.95;;;15.30;93.60;;;;;;5076980;28;20036;-76
2021/07/03 02:30:17;;;;;;;19.35;12.13;;;15.30;93.60;;;;;;5075543;28;20029;-76
2021/07/03 02:32:44;;;;;;;20.65;12.93;;;15.30;93.70;;;;;;5059003;28;20029;-76
2021/07/03 02:35:11;;;;;;;21.95;13.27;;;15.30;93.70;;;;;;5077016;28;20043;-76
2021/07/03 02:37:38;;;;;;;19.63;12.48;;;15.30;93.70;;;;;;5075283;28;20525;-76
2021/07/03 02:40:06;;;;;;;19.55;12.68;;;15.30;93.80;;;;;;5075208;28;20380;-76
2021/07/03 02:42:32;;;;;;;21.83;12.50;;;15.20;93.80;;;;;;5075480;28;20464;-76
2021/07/03 02:44:58;;;;;;;19.02;11.68;;;15.20;93.80;;;;;;5075189;28;20039;-76
2021/07/03 02:47:23;;;;;;;23.48;12.63;;;15.20;93.80;;;;;;5076579;28;20082;-76
2021/07/03 02:49:49;;;;;;;20.45;13.20;;;15.20;93.90;;;;;;5075207;28;20039;-76
2021/07/03 02:52:15;;;;;;;23.17;12.88;;;15.20;93.90;;;;;;5076486;28;20035;-76
2021/07/03 02:54:40;;;;;;;20.30;12.88;;;15.20;94.00;;;;;;5076832;28;20411;-76
2021/07/03 02:57:06;;;;;;;21.05;12.48;;;15.20;94.00;;;;;;5075173;28;20468;-76
2021/07/03 02:59:32;;;;;;;24.23;12.95;;;15.10;94.00;;;;;;5075103;28;20033;-76
2021/07/03 03:01:57;;;;;;;21.95;14.48;;;15.20;94.00;;;;;;5075469;28;20040;-76
2021/07/03 03:04:23;;;;;;;23.85;14.60;;;15.10;94.00;;;;;;5075254;28;20048;-76
2021/07/03 03:06:48;;;;;;;23.45;14.25;;;15.10;94.10;;;;;;5058417;28;20032;-76
2021/07/03 03:09:15;;;;;;;25.02;15.07;;;15.10;94.10;;;;;;5076428;28;20033;-76
2021/07/03 03:11:41;;;;;;;27.67;16.65;;;15.10;94.20;;;;;;5076216;28;20056;-76
2021/07/03 03:14:07;;;;;;;30.23;19.10;;;15.20;94.30;;;;;;5075928;28;20377;-76
2021/07/03 03:16:33;;;;;;;40.95;20.65;;;15.10;94.30;;;;;;5074771;28;20067;-76
2021/07/03 03:18:58;;;;;;;34.80;19.10;;;15.10;94.30;;;;;;5074794;28;20028;-76
2021/07/03 03:21:24;;;;;;;32.95;20.40;;;15.10;94.40;;;;;;5078106;28;20040;-76
2021/07/03 03:23:49;;;;;;;34.22;21.08;;;15.20;94.50;;;;;;5074149;28;20037;-76
2021/07/03 03:26:15;;;;;;;36.25;22.00;;;15.20;94.50;;;;;;5057215;28;20080;-76
2021/07/03 03:28:41;;;;;;;37.67;22.05;;;15.20;94.50;;;;;;5074205;28;20388;-76
2021/07/03 03:31:07;;;;;;;36.30;20.77;;;15.20;94.50;;;;;;5074711;28;20103;-76
2021/07/03 03:33:32;;;;;;;41.05;23.08;;;15.20;94.60;;;;;;5074511;28;20029;-76
2021/07/03 03:35:58;;;;;;;36.35;22.15;;;15.20;94.60;;;;;;5056152;28;20438;-76
2021/07/03 03:38:24;;;;;;;36.50;23.02;;;15.20;94.70;;;;;;5075384;28;20033;-76
2021/07/03 03:40:49;;;;;;;36.45;21.90;;;15.20;94.70;;;;;;5074316;28;20046;-76
2021/07/03 03:43:15;;;;;;;38.53;23.13;;;15.20;94.80;;;;;;5057658;28;20074;-76
2021/07/03 03:45:41;;;;;;;37.63;23.60;;;15.20;94.80;;;;;;5074095;28;20472;-76
2021/07/03 03:48:07;;;;;;;43.20;23.83;;;15.20;94.80;;;;;;5057262;28;20465;-75
2021/07/03 03:50:34;;;;;;;35.72;22.95;;;15.30;94.90;;;;;;5074053;28;20036;-76
2021/07/03 03:53:00;;;;;;;41.58;24.50;;;15.30;94.90;;;;;;5075355;28;20028;-76
2021/07/03 03:55:27;;;;;;;40.13;23.92;;;15.30;94.90;;;;;;5074148;28;20028;-76
2021/07/03 03:57:53;;;;;;;37.40;23.60;;;15.30;94.90;;;;;;5074384;28;20419;-76
2021/07/03 04:00:20;;;;;;;36.85;23.60;;;15.30;95.00;;;;;;5057361;28;20036;-76
2021/07/03 04:02:46;;;;;;;35.83;22.88;;;15.30;95.00;;;;;;5075161;28;20055;-76
2021/07/03 04:05:13;;;;;;;37.50;23.75;;;15.30;95.00;;;;;;5073538;28;20452;-76
2021/07/03 04:07:39;;;;;;;41.80;24.35;;;15.30;95.00;;;;;;5056518;28;20039;-76
2021/07/03 04:10:07;;;;;;;42.78;25.13;;;15.30;95.00;;;;;;5075057;28;20064;-76
2021/07/03 04:12:33;;;;;;;41.80;24.50;;;15.40;95.10;;;;;;5073715;28;20028;-76
2021/07/03 04:14:59;;;;;;;43.67;24.17;;;15.30;95.10;;;;;;5073564;28;20032;-76
2021/07/03 04:17:25;;;;;;;38.67;24.95;;;15.40;95.10;;;;;;5073634;28;20480;-76
2021/07/03 04:19:51;;;;;;;41.70;24.27;;;15.40;95.10;;;;;;5073848;28;20035;-76
2021/07/03 04:22:17;;;;;;;41.53;24.27;;;15.40;95.10;;;;;;5073577;28;20028;-76
2021/07/03 04:24:43;;;;;;;41.20;24.48;;;15.40;95.10;;;;;;5074539;28;20059;-76
2021/07/03 04:27:09;;;;;;;43.33;24.75;;;15.40;95.10;;;;;;5075392;28;20481;-76
2021/07/03 04:29:34;;;;;;;43.55;25.58;;;15.40;95.10;;;;;;5064385;28;20040;-76
2021/07/03 04:32:00;;;;;;;41.40;25.40;;;15.40;95.10;;;;;;5073450;28;20032;-76
2021/07/03 04:34:26;;;;;;;42.10;24.67;;;15.40;95.10;;;;;;5073262;28;20056;-76
2021/07/03 04:36:52;;;;;;;42.20;24.85;;;15.50;95.10;;;;;;5056419;28;20087;-76
2021/07/03 04:39:18;;;;;;;40.28;25.30;;;15.50;95.10;;;;;;5072979;28;20032;-76
2021/07/03 04:41:43;;;;;;;44.70;26.60;;;15.50;95.10;;;;;;5073071;28;20024;-76
2021/07/03 04:44:10;;;;;;;44.40;25.77;;;15.50;95.10;;;;;;5073070;28;20028;-76
2021/07/03 04:46:36;;;;;;;45.42;27.58;;;15.50;95.20;;;;;;5073235;28;20033;-76
2021/07/03 04:49:03;;;;;;;41.42;25.80;;;15.50;95.20;;;;;;5073828;28;20059;-76
2021/07/03 04:51:28;;;;;;;44.45;24.88;;;15.50;95.20;;;;;;5072700;28;20033;-76
2021/07/03 04:53:54;;;;;;;44.95;26.33;;;15.50;95.20;;;;;;5072859;28;20025;-76
2021/07/03 04:56:20;;;;;;;41.88;25.40;;;15.60;95.30;;;;;;5074053;28;20025;-76
2021/07/03 04:58:46;;;;;;;43.53;25.50;;;15.60;95.60;;;;;;5073035;28;20058;-76
2021/07/03 05:01:11;;;;;;;40.90;25.23;;;15.60;95.30;;;;;;5072585;28;20090;-76
2021/07/03 05:03:37;;;;;;;41.30;25.88;;;15.60;95.30;;;;;;5056026;28;20064;-76
2021/07/03 05:06:03;;;;;;;39.30;25.25;;;15.60;95.30;;;;;;5072729;28;20029;-76
2021/07/03 05:08:29;;;;;;;41.88;25.25;;;15.60;95.50;;;;;;5072799;28;20119;-76
2021/07/03 05:10:54;;;;;;;42.67;25.90;;;15.70;95.30;;;;;;5072329;28;20035;-76
2021/07/03 05:13:20;;;;;;;42.08;25.85;;;15.70;95.30;;;;;;5072798;28;20036;-76
2021/07/03 05:15:46;;;;;;;41.08;25.30;;;15.70;95.30;;;;;;5072501;28;20032;-76
2021/07/03 05:18:11;;;;;;;41.65;25.27;;;15.70;95.30;;;;;;5072770;28;20029;-76
2021/07/03 05:20:37;;;;;;;42.90;26.33;;;15.70;95.30;;;;;;5073665;28;20060;-76
2021/07/03 05:23:03;;;;;;;38.63;24.15;;;15.70;95.60;;;;;;5072758;28;20357;-76
2021/07/03 05:25:28;;;;;;;45.13;25.73;;;15.80;95.30;;;;;;5072503;28;20036;-76
2021/07/03 05:27:54;;;;;;;40.90;25.10;;;15.80;95.40;;;;;;5073959;28;20067;-76
2021/07/03 05:30:20;;;;;;;45.33;28.05;;;15.80;95.40;;;;;;5072137;28;20052;-76
2021/07/03 05:32:45;;;;;;;43.72;28.38;;;15.80;95.70;;;;;;5072940;28;20036;-77
2021/07/03 05:35:12;;;;;;;45.33;27.92;;;15.90;95.40;;;;;;5055666;28;20027;-76
2021/07/03 05:37:39;;;;;;;46.58;28.10;;;15.90;95.40;;;;;;5082874;28;20028;-76
2021/07/03 05:40:08;;;;;;;49.58;28.60;;;15.90;95.40;;;;;;5093984;28;20479;-76
2021/07/03 05:42:34;;;;;;;45.63;30.25;;;16.00;95.40;;;;;;5093027;28;20024;-76
2021/07/03 05:45:00;;;;;;;45.60;29.23;;;16.00;95.40;;;;;;5092008;28;20093;-76
2021/07/03 05:47:25;;;;;;;46.30;28.83;;;16.00;95.40;;;;;;5092436;28;20480;-76
2021/07/03 05:49:51;;;;;;;47.95;30.20;;;16.10;95.40;;;;;;5092510;28;20111;-76
2021/07/03 05:52:17;;;;;;;49.45;30.88;;;16.10;95.40;;;;;;5093342;28;20506;-76
2021/07/03 05:54:42;;;;;;;48.65;29.17;;;16.10;95.40;;;;;;5075542;28;20051;-76
2021/07/03 05:57:08;;;;;;;48.97;30.38;;;16.20;95.40;;;;;;5092691;28;20414;-76
2021/07/03 05:59:34;;;;;;;52.13;32.97;;;16.20;95.40;;;;;;5095037;28;20031;-76
2021/07/03 06:01:59;;;;;;;51.88;30.98;;;16.30;95.40;;;;;;5079235;28;20031;-76
2021/07/03 06:04:25;;;;;;;50.83;32.42;;;16.30;95.40;;;;;;5097292;28;20035;-76
2021/07/03 06:06:51;;;;;;;49.53;33.38;;;16.40;95.40;;;;;;5097438;28;20056;-75
2021/07/03 06:09:17;;;;;;;55.00;33.17;;;16.40;95.40;;;;;;5096101;28;20020;-75
2021/07/03 06:11:42;;;;;;;50.17;31.50;;;16.50;95.60;;;;;;5096281;28;20028;-76
2021/07/03 06:14:08;;;;;;;51.25;32.70;;;16.50;95.30;;;;;;5085184;28;20087;-75
2021/07/03 06:16:34;;;;;;;51.45;32.72;;;16.50;95.30;;;;;;5074396;28;20103;-76
2021/07/03 06:19:01;;;;;;;53.97;32.92;;;16.60;95.30;;;;;;5074634;28;20020;-75
2021/07/03 06:21:27;;;;;;;49.80;32.35;;;16.60;95.30;;;;;;5074724;28;20426;-77
2021/07/03 06:23:53;;;;;;;52.63;34.65;;;16.70;95.30;;;;;;5074719;28;20038;-76
2021/07/03 06:26:19;;;;;;;53.05;34.15;;;16.70;95.30;;;;;;5075948;28;20108;-77
2021/07/03 06:28:44;;;;;;;51.25;33.25;;;16.70;95.30;;;;;;5074369;28;20021;-76
2021/07/03 06:31:10;;;;;;;49.00;32.65;;;16.80;95.20;;;;;;5055509;28;20029;-76
2021/07/03 06:33:36;;;;;;;55.78;34.17;;;16.80;95.20;;;;;;5075103;28;20056;-77
2021/07/03 06:36:02;;;;;;;50.15;32.42;;;16.90;95.20;;;;;;5076736;28;20029;-76
2021/07/03 06:38:28;;;;;;;54.58;34.90;;;17.00;95.10;;;;;;5075235;28;20559;-74
2021/07/03 06:40:53;;;;;;;47.38;30.98;;;17.00;95.10;;;;;;5076553;28;20047;-76
2021/07/03 06:43:19;;;;;;;50.85;32.08;;;17.00;95.00;;;;;;5076380;28;20031;-76
2021/07/03 06:45:44;;;;;;;49.55;31.15;;;17.10;95.00;;;;;;5075413;28;20325;-76
2021/07/03 06:48:10;;;;;;;47.55;30.92;;;17.10;95.00;;;;;;5058729;28;20372;-76
2021/07/03 06:50:36;;;;;;;48.45;31.15;;;17.20;94.90;;;;;;5058475;28;20531;-75
2021/07/03 06:53:02;;;;;;;44.70;28.85;;;17.20;94.80;;;;;;5076411;28;20044;-76
2021/07/03 06:55:27;;;;;;;44.03;30.38;;;17.30;94.80;;;;;;5075303;28;20021;-74
2021/07/03 06:57:53;;;;;;;47.05;29.58;;;17.40;94.80;;;;;;5074704;28;20499;-74
2021/07/03 07:00:19;;;;;;;47.85;29.98;;;17.40;94.70;;;;;;5074913;28;20028;-74
2021/07/03 07:02:44;;;;;;;48.15;31.23;;;17.50;94.60;;;;;;5076227;28;20032;-74
2021/07/03 07:05:11;;;;;;;43.33;29.15;;;17.60;94.60;;;;;;5076028;28;20037;-74
2021/07/03 07:07:36;;;;;;;42.05;28.95;;;17.60;94.50;;;;;;5076191;28;20036;-74
2021/07/03 07:10:04;;;;;;;48.20;29.00;;;17.70;94.40;;;;;;5074932;28;20086;-73
2021/07/03 07:12:30;;;;;;;44.83;29.73;;;17.70;94.30;;;;;;5057790;28;20031;-74
2021/07/03 07:14:56;;;;;;;41.05;26.73;;;17.80;94.20;;;;;;5076018;28;20028;-74
2021/07/03 07:17:22;;;;;;;39.58;27.60;;;17.80;94.10;;;;;;5057805;28;20025;-74
2021/07/03 07:19:48;;;;;;;40.50;27.70;;;17.90;94.00;;;;;;5074586;28;20082;-74
2021/07/03 07:22:14;;;;;;;40.55;26.75;;;17.90;93.90;;;;;;5057623;28;20029;-75
2021/07/03 07:24:41;;;;;;;37.83;26.58;;;18.00;93.80;;;;;;5075798;28;20357;-74
2021/07/03 07:27:07;;;;;;;40.78;26.52;;;18.10;93.80;;;;;;5072785;28;20017;-74
2021/07/03 07:29:33;;;;;;;30.88;22.83;;;18.10;93.70;;;;;;5074404;28;20056;-75
2021/07/03 07:31:58;;;;;;;31.38;21.80;;;18.20;93.60;;;;;;5074780;28;20448;-74
2021/07/03 07:34:24;;;;;;;31.90;23.77;;;18.30;93.50;;;;;;5075640;28;20028;-74
2021/07/03 07:36:50;;;;;;;30.98;23.50;;;18.40;93.40;;;;;;5057646;28;20021;-73
2021/07/03 07:39:15;;;;;;;32.55;23.45;;;18.40;93.40;;;;;;5074161;28;20032;-76
2021/07/03 07:41:41;;;;;;;35.53;24.10;;;18.50;93.20;;;;;;5074440;28;20031;-74
2021/07/03 07:44:07;;;;;;;33.10;24.05;;;18.60;93.10;;;;;;5074158;28;20033;-74
2021/07/03 07:46:32;;;;;;;29.67;22.15;;;18.60;92.90;;;;;;5074243;28;20040;-75
2021/07/03 07:48:59;;;;;;;29.95;22.73;;;18.70;92.70;;;;;;5073890;28;20040;-74
2021/07/03 07:51:25;;;;;;;30.20;22.15;;;18.80;92.70;;;;;;5074051;28;20031;-74
2021/07/03 07:53:51;;;;;;;25.65;20.23;;;18.90;92.50;;;;;;5057479;28;20364;-77
2021/07/03 07:56:18;;;;;;;26.38;20.13;;;18.90;92.40;;;;;;5057254;28;20021;-75
2021/07/03 07:58:47;;;;;;;29.13;20.08;;;19.00;92.20;;;;;;5075177;28;20029;-76
2021/07/03 08:01:13;;;;;;;30.25;21.92;;;19.10;92.00;;;;;;5073717;28;20046;-73
2021/07/03 08:03:39;;;;;;;29.23;22.55;;;19.10;91.80;;;;;;5073865;28;20016;-75
2021/07/03 08:06:05;;;;;;;28.30;21.85;;;19.20;91.70;;;;;;5057243;28;20074;-75
2021/07/03 08:08:31;;;;;;;30.00;21.35;;;19.30;91.60;;;;;;5073438;28;20028;-73
2021/07/03 08:10:56;;;;;;;26.38;19.88;;;19.40;91.60;;;;;;5074706;28;20028;-76
2021/07/03 08:13:22;;;;;;;29.27;20.17;;;19.50;91.40;;;;;;5073345;28;20029;-75
2021/07/03 08:15:50;;;;;;;29.13;19.13;;;19.50;91.20;;;;;;5073342;28;20063;-75
2021/07/03 08:18:16;;;;;;;28.98;20.80;;;19.60;91.00;;;;;;5073376;28;20025;-74
2021/07/03 08:20:42;;;;;;;28.05;21.25;;;19.70;90.60;;;;;;5074787;28;20071;-74
2021/07/03 08:23:08;;;;;;;29.02;18.40;;;19.80;90.50;;;;;;5074346;28;20044;-75
2021/07/03 08:25:34;;;;;;;22.98;17.60;;;19.80;90.40;;;;;;5073194;28;20020;-77
2021/07/03 08:27:59;;;;;;;22.88;16.40;;;19.90;90.30;;;;;;5072853;28;21089;-78
2021/07/03 08:30:28;;;;;;;24.60;18.17;;;20.00;90.20;;;;;;5056034;28;20131;-75
2021/07/03 08:32:54;;;;;;;25.73;16.50;;;20.10;90.00;;;;;;5070214;28;20044;-75
2021/07/03 08:35:20;;;;;;;25.35;17.55;;;20.10;90.00;;;;;;5072916;28;20024;-75
2021/07/03 08:37:46;;;;;;;21.52;16.48;;;20.20;89.60;;;;;;5072753;28;20402;-75
2021/07/03 08:40:14;;;;;;;23.85;16.17;;;20.30;89.30;;;;;;5073416;28;20024;-75
2021/07/03 08:42:39;;;;;;;23.55;16.33;;;20.40;88.90;;;;;;5056531;28;20093;-74
2021/07/03 08:45:07;;;;;;;21.95;15.57;;;20.50;88.60;;;;;;5072561;28;20460;-75
2021/07/03 08:47:32;;;;;;;22.08;15.85;;;20.50;88.20;;;;;;5056393;28;20511;-75
2021/07/03 08:50:01;;;;;;;20.80;15.25;;;20.60;87.80;;;;;;5056316;28;20035;-76
2021/07/03 08:52:27;;;;;;;26.92;15.90;;;20.70;87.30;;;;;;5073705;28;20082;-76
2021/07/03 08:55:02;;;;;;;19.73;15.00;;;20.80;86.80;;;;;;5072381;28;20029;-75
2021/07/03 08:57:28;;;;;;;24.08;15.32;;;20.90;86.40;;;;;;5072033;28;20025;-76
2021/07/03 08:59:58;;;;;;;23.65;17.35;;;21.00;85.90;;;;;;5056297;28;20115;-76
2021/07/03 09:02:37;;;;;;;18.35;13.27;;;21.00;85.30;;;;;;5072933;28;20035;-76
2021/07/03 09:05:15;;;;;;;22.58;15.65;;;21.10;84.70;;;;;;5073965;28;20108;-76
2021/07/03 09:07:41;;;;;;;20.23;14.80;;;21.10;83.80;;;;;;5072926;28;20128;-77
2021/07/03 09:10:07;;;;;;;18.75;13.85;;;21.20;83.40;;;;;;5072392;28;20111;-75
2021/07/03 09:12:34;;;;;;;18.25;12.98;;;21.30;83.50;;;;;;5055899;28;20036;-75
2021/07/03 09:15:18;;;;;;;20.05;14.50;;;21.40;83.40;;;;;;5073539;28;20380;-75
2021/07/03 09:17:53;;;;;;;20.80;13.18;;;21.50;82.70;;;;;;5072151;28;20048;-75
2021/07/03 09:20:31;;;;;;;15.85;10.43;;;21.60;82.50;;;;;;5072922;28;20033;-77
2021/07/03 09:23:20;;;;;;;15.02;11.23;;;21.70;81.70;;;;;;5071115;28;20024;-75
2021/07/03 09:26:00;;;;;;;18.30;12.60;;;21.80;81.30;;;;;;5072088;28;20430;-77
2021/07/03 09:28:29;;;;;;;15.50;10.88;;;21.90;81.00;;;;;;5073593;28;20090;-76
2021/07/03 09:30:57;;;;;;;16.42;11.07;;;22.00;80.70;;;;;;5072868;28;20044;-77
2021/07/03 09:33:26;;;;;;;15.15;10.65;;;22.00;79.00;;;;;;5072179;28;20028;-76
2021/07/03 09:35:55;;;;;;;15.82;11.05;;;22.20;78.70;;;;;;5073438;28;20082;-75
2021/07/03 09:38:37;;;;;;;17.13;11.18;;;22.30;78.70;;;;;;5072441;28;20434;-75
2021/07/03 09:41:14;;;;;;;12.82;8.85;;;22.40;78.60;;;;;;5073415;28;20024;-75
2021/07/03 09:43:49;;;;;;;16.58;10.55;;;22.50;77.90;;;;;;5072010;28;20052;-76
2021/07/03 09:46:32;;;;;;;17.23;10.20;;;22.60;77.40;;;;;;5073291;28;20444;-77
2021/07/03 09:49:06;;;;;;;14.10;9.73;;;22.70;77.10;;;;;;5073182;28;20056;-75
2021/07/03 09:51:33;;;;;;;14.57;9.02;;;22.80;77.00;;;;;;5073495;28;20036;-77
2021/07/03 09:54:00;;;;;;;11.55;8.52;;;22.90;76.50;;;;;;5073469;28;20116;-75
2021/07/03 09:56:27;;;;;;;14.32;8.43;;;23.00;75.80;;;;;;5072037;28;20082;-77
2021/07/03 09:58:54;;;;;;;13.27;7.57;;;23.10;75.00;;;;;;5072817;28;20021;-75
2021/07/03 10:01:20;;;;;;;12.18;8.07;;;23.20;74.20;;;;;;5071691;28;20017;-76
2021/07/03 10:03:46;;;;;;;10.70;6.80;;;23.30;73.60;;;;;;5072109;28;20365;-75
2021/07/03 10:06:19;;;;;;;12.02;8.23;;;23.40;73.20;;;;;;5073112;28;20032;-77
2021/07/03 10:08:51;;;;;;;11.52;7.85;;;23.50;72.40;;;;;;5071981;28;20115;-75
2021/07/03 10:11:21;;;;;;;12.15;7.97;;;23.60;71.80;;;;;;5071554;28;20028;-75
2021/07/03 10:14:01;;;;;;;11.65;6.70;;;23.70;71.20;;;;;;5073032;28;20054;-78
2021/07/03 10:16:27;;;;;;;7.85;6.15;;;23.80;71.00;;;;;;5073142;28;20096;-77
2021/07/03 10:19:28;;;;;;;10.18;6.90;;;23.90;70.40;;;;;;5071946;28;20028;-77
2021/07/03 10:21:53;;;;;;;10.82;6.53;;;24.10;69.90;;;;;;5071030;28;20442;-75
2021/07/03 10:24:24;;;;;;;10.98;7.07;;;24.20;69.90;;;;;;5073001;28;20036;-73
2021/07/03 10:26:51;;;;;;;10.55;7.03;;;24.30;69.60;;;;;;5072498;28;20033;-73
2021/07/03 10:29:20;;;;;;;11.40;7.38;;;24.50;69.40;;;;;;5054947;28;20028;-77
2021/07/03 10:31:47;;;;;;;12.18;7.40;;;24.60;68.70;;;;;;5072413;28;20534;-74
2021/07/03 10:34:13;;;;;;;8.68;5.80;;;24.90;68.40;;;;;;5072219;28;20472;-76
2021/07/03 10:36:39;;;;;;;9.10;5.63;;;25.10;67.90;;;;;;5072747;28;20032;-78
2021/07/03 10:39:06;;;;;;;10.82;6.45;;;25.40;67.00;;;;;;5071577;28;20025;-79
2021/07/03 10:41:33;;;;;;;9.63;6.45;;;25.70;66.10;;;;;;5071844;28;20017;-78
2021/07/03 10:44:10;;;;;;;11.00;5.68;;;26.10;64.70;;;;;;5073139;28;20023;-78
2021/07/03 10:46:41;;;;;;;9.38;6.63;;;26.40;63.60;;;;;;5077003;28;20029;-81
2021/07/03 10:49:12;;;;;;;9.80;6.88;;;26.70;63.10;;;;;;5055027;28;20021;-75
2021/07/03 10:51:47;;;;;;;9.23;5.97;;;26.80;62.50;;;;;;5073320;28;20447;-82
2021/07/03 10:54:27;;;;;;;8.80;6.25;;;27.00;62.20;;;;;;5076083;28;20086;-79
2021/07/03 10:57:03;;;;;;;8.23;5.38;;;27.10;60.70;;;;;;5076996;28;20392;-77
2021/07/03 10:59:34;;;;;;;7.97;5.57;;;27.30;61.00;;;;;;5075893;28;20056;-75
2021/07/03 11:02:11;;;;;;;8.10;5.30;;;27.40;60.70;;;;;;5074334;28;20361;-78
2021/07/03 11:04:47;;;;;;;8.48;5.55;;;27.60;60.00;;;;;;5074968;28;20033;-76
2021/07/03 11:07:18;;;;;;;8.70;5.43;;;28.20;59.30;;;;;;5076091;28;20048;-75
2021/07/03 11:09:44;;;;;;;6.60;4.82;;;28.50;59.30;;;;;;5075996;28;20025;-77
2021/07/03 11:12:16;;;;;;;7.07;4.80;;;28.70;58.80;;;;;;5076035;28;20070;-76
2021/07/03 11:14:51;;;;;;;7.55;5.13;;;28.90;58.10;;;;;;5075829;28;20070;-76
2021/07/03 11:17:18;;;;;;;5.97;4.50;;;29.00;56.70;;;;;;5074935;28;20032;-76
2021/07/03 11:19:47;;;;;;;6.07;4.25;;;29.10;56.60;;;;;;5075131;28;20024;-75
2021/07/03 11:22:14;;;;;;;7.32;4.32;;;29.20;56.20;;;;;;5060953;28;20029;-76
2021/07/03 11:24:45;;;;;;;7.00;5.07;;;29.20;55.70;;;;;;5068993;28;20024;-78
2021/07/03 11:27:22;;;;;;;13.25;4.95;;;29.30;55.30;;;;;;5074215;28;20016;-76
2021/07/03 11:29:49;;;;;;;9.13;4.43;;;29.30;55.20;;;;;;5074484;28;20114;-76
2021/07/03 11:32:15;;;;;;;8.38;4.55;;;29.60;55.10;;;;;;5074040;28;20430;-76
2021/07/03 11:34:54;;;;;;;5.65;4.38;;;29.80;54.70;;;;;;5057608;28;20476;-74
2021/07/03 11:37:31;;;;;;;6.30;3.83;;;30.00;53.70;;;;;;5075404;28;20442;-75
2021/07/03 11:39:59;;;;;;;7.07;4.07;;;30.10;53.20;;;;;;5075544;28;20025;-75
2021/07/03 11:42:33;;;;;;;7.10;4.15;;;30.10;53.00;;;;;;5075397;28;20020;-75
2021/07/03 11:45:00;;;;;;;6.50;4.10;;;30.10;52.80;;;;;;5075401;28;20024;-77
2021/07/03 11:47:36;;;;;;;6.88;4.63;;;30.10;52.60;;;;;;5075175;28;20025;-77
2021/07/03 11:50:06;;;;;;;8.40;4.47;;;30.00;51.90;;;;;;5074351;28;20419;-77
2021/07/03 11:52:49;;;;;;;4.97;3.67;;;30.00;51.90;;;;;;5058070;28;20434;-76
2021/07/03 11:55:21;;;;;;;7.53;4.50;;;30.00;51.50;;;;;;5074918;28;20483;-78
2021/07/03 11:57:48;;;;;;;4.65;3.53;;;30.00;51.90;;;;;;5072879;28;20025;-76
2021/07/03 12:00:25;;;;;;;5.82;3.88;;;30.00;51.90;;;;;;5075263;28;20023;-76
2021/07/03 12:02:52;;;;;;;5.38;3.80;;;30.00;52.10;;;;;;5075044;28;20491;-76
2021/07/03 12:05:29;;;;;;;5.55;3.92;;;30.00;52.00;;;;;;5074175;28;20070;-76
2021/07/03 12:08:06;;;;;;;5.50;3.83;;;30.10;51.50;;;;;;5073985;28;20033;-76
2021/07/03 12:10:35;;;;;;;9.13;4.30;;;30.30;51.40;;;;;;5073803;28;20052;-77
2021/07/03 12:13:05;;;;;;;6.43;4.25;;;30.50;51.20;;;;;;5057729;28;20020;-77
2021/07/03 12:15:30;;;;;;;6.85;4.00;;;30.50;50.50;;;;;;5073763;28;20020;-80
2021/07/03 12:17:57;;;;;;;5.55;4.18;;;30.50;50.40;;;;;;5073823;28;20158;-77
2021/07/03 12:20:24;;;;;;;7.57;4.28;;;30.50;50.40;;;;;;5074604;28;20098;-77
2021/07/03 12:22:56;;;;;;;6.05;4.22;;;30.50;49.80;;;;;;5073489;28;20028;-78
2021/07/03 12:25:23;;;;;;;5.15;3.60;;;30.50;49.30;;;;;;5074636;28;20038;-79
2021/07/03 12:28:14;;;;;;;5.45;3.75;;;30.40;49.10;;;;;;5064849;28;20029;-78
2021/07/03 12:30:40;;;;;;;6.80;3.47;;;30.30;48.60;;;;;;5050988;28;20057;-77
2021/07/03 12:33:11;;;;;;;6.13;3.45;;;30.20;49.00;;;;;;5052974;28;20025;-77